createdAt,value
2023-10-07T00:01:52.319Z,14.20
2023-10-07T00:04:18.815Z,14.14
2023-10-07T00:06:45.272Z,14.16
2023-10-07T00:09:11.749Z,14.16
2023-10-07T00:11:38.189Z,14.20
2023-10-07T00:14:04.718Z,14.18
2023-10-07T00:16:31.345Z,14.19
2023-10-07T00:18:57.832Z,14.25
2023-10-07T00:21:24.283Z,14.28
2023-10-07T00:23:50.725Z,14.26
2023-10-07T00:26:17.159Z,14.22
2023-10-07T00:28:43.617Z,14.22
2023-10-07T00:31:10.134Z,14.14
2023-10-07T00:33:36.636Z,14.08
2023-10-07T00:36:03.170Z,14.10
2023-10-07T00:38:29.611Z,14.08
2023-10-07T00:40:56.133Z,14.02
2023-10-07T00:43:22.601Z,13.99
2023-10-07T00:45:49.198Z,13.93
2023-10-07T00:48:15.648Z,13.93
2023-10-07T00:50:42.090Z,13.94
2023-10-07T00:53:08.570Z,13.98
2023-10-07T00:55:35.080Z,13.92
2023-10-07T00:58:01.555Z,13.89
2023-10-07T01:00:28.053Z,13.89
2023-10-07T01:02:54.539Z,13.94
2023-10-07T01:05:21.097Z,13.98
2023-10-07T01:07:47.610Z,13.99
2023-10-07T01:10:14.085Z,14.03
2023-10-07T01:12:40.695Z,14.06
2023-10-07T01:15:07.204Z,14.09
2023-10-07T01:17:33.680Z,14.14
2023-10-07T01:20:00.360Z,14.07
2023-10-07T01:22:27.082Z,14.02
2023-10-07T01:24:53.543Z,13.97
2023-10-07T01:27:20.006Z,13.96
2023-10-07T01:29:46.497Z,13.92
2023-10-07T01:32:12.993Z,13.92
2023-10-07T01:34:39.508Z,13.85
2023-10-07T01:37:05.978Z,13.79
2023-10-07T01:39:32.428Z,13.69
2023-10-07T01:41:58.884Z,13.61
2023-10-07T01:44:25.326Z,13.56
2023-10-07T01:46:51.829Z,13.53
2023-10-07T01:49:18.526Z,13.55
2023-10-07T01:51:45.114Z,13.54
2023-10-07T01:54:11.743Z,13.52
2023-10-07T01:56:38.355Z,13.46
2023-10-07T01:59:04.863Z,13.41
2023-10-07T02:01:34.153Z,13.33
2023-10-07T02:04:00.686Z,13.24
2023-10-07T02:06:27.146Z,13.22
2023-10-07T02:08:53.572Z,13.22
2023-10-07T02:11:20.007Z,13.21
2023-10-07T02:13:46.498Z,13.25
2023-10-07T02:16:12.977Z,13.28
2023-10-07T02:18:39.499Z,13.25
2023-10-07T02:21:05.958Z,13.20
2023-10-07T02:23:32.424Z,13.16
2023-10-07T02:25:58.909Z,13.11
2023-10-07T02:28:25.433Z,13.06
2023-10-07T02:30:51.940Z,13.04
2023-10-07T02:33:18.425Z,13.03
2023-10-07T02:35:44.863Z,13.04
2023-10-07T02:38:11.330Z,13.05
2023-10-07T02:40:37.887Z,13.00
2023-10-07T02:43:04.354Z,12.96
2023-10-07T02:45:30.803Z,12.94
2023-10-07T02:47:57.266Z,12.84
2023-10-07T02:50:23.736Z,12.75
2023-10-07T02:52:50.214Z,12.66
2023-10-07T02:55:16.699Z,12.62
2023-10-07T02:57:43.155Z,12.63
2023-10-07T03:00:09.598Z,12.65
2023-10-07T03:02:36.146Z,12.63
2023-10-07T03:05:02.682Z,12.61
2023-10-07T03:07:29.229Z,12.62
2023-10-07T03:09:55.734Z,12.63
2023-10-07T03:12:22.207Z,12.65
2023-10-07T03:14:48.707Z,12.66
2023-10-07T03:17:15.246Z,12.66
2023-10-07T03:19:41.785Z,12.66
2023-10-07T03:22:08.279Z,12.66
2023-10-07T03:24:34.733Z,12.64
2023-10-07T03:27:01.197Z,12.66
2023-10-07T03:29:27.661Z,12.67
2023-10-07T03:31:54.154Z,12.66
2023-10-07T03:34:20.751Z,12.64
2023-10-07T03:36:47.186Z,12.55
2023-10-07T03:39:13.641Z,12.46
2023-10-07T03:41:40.094Z,12.37
2023-10-07T03:44:06.589Z,12.25
2023-10-07T03:46:33.092Z,12.20
2023-10-07T03:48:59.594Z,12.12
2023-10-07T03:51:26.067Z,12.10
2023-10-07T03:53:52.544Z,12.08
2023-10-07T03:56:18.982Z,12.05
2023-10-07T03:58:45.484Z,12.02
2023-10-07T04:01:11.941Z,12.00
2023-10-07T04:03:38.498Z,11.94
2023-10-07T04:06:05.048Z,11.95
2023-10-07T04:08:31.476Z,11.93
2023-10-07T04:10:57.972Z,11.87
2023-10-07T04:13:24.487Z,11.86
2023-10-07T04:15:50.945Z,11.80
2023-10-07T04:18:17.562Z,11.83
2023-10-07T04:20:44.084Z,11.87
2023-10-07T04:23:10.609Z,11.85
2023-10-07T04:25:37.135Z,11.87
2023-10-07T04:28:03.607Z,11.88
2023-10-07T04:30:30.103Z,11.86
2023-10-07T04:32:56.713Z,11.86
2023-10-07T04:35:23.220Z,11.88
2023-10-07T04:37:49.715Z,11.84
2023-10-07T04:40:16.185Z,11.81
2023-10-07T04:42:42.671Z,11.80
2023-10-07T04:45:09.151Z,11.80
2023-10-07T04:47:35.698Z,11.75
2023-10-07T04:50:02.355Z,11.70
2023-10-07T04:52:28.887Z,11.60
2023-10-07T04:54:55.336Z,11.58
2023-10-07T04:57:21.778Z,11.55
2023-10-07T04:59:48.210Z,11.44
2023-10-07T05:02:14.705Z,11.40
2023-10-07T05:04:41.266Z,11.42
2023-10-07T05:07:07.716Z,11.43
2023-10-07T05:09:34.173Z,11.43
2023-10-07T05:12:00.644Z,11.47
2023-10-07T05:14:27.156Z,11.50
2023-10-07T05:16:53.980Z,11.52
2023-10-07T05:19:20.572Z,11.50
2023-10-07T05:21:47.019Z,11.49
2023-10-07T05:24:13.486Z,11.47
2023-10-07T05:26:39.937Z,11.37
2023-10-07T05:29:06.472Z,11.32
2023-10-07T05:31:32.979Z,11.28
2023-10-07T05:33:59.471Z,11.27
2023-10-07T05:36:25.989Z,11.22
2023-10-07T05:38:52.497Z,11.22
2023-10-07T05:41:18.995Z,11.19
2023-10-07T05:43:45.605Z,11.19
2023-10-07T05:46:12.129Z,11.24
2023-10-07T05:48:38.696Z,11.15
2023-10-07T05:51:05.189Z,11.09
2023-10-07T05:53:31.631Z,11.12
2023-10-07T05:55:58.135Z,11.24
2023-10-07T05:58:24.621Z,11.35
2023-10-07T06:00:51.062Z,11.45
2023-10-07T06:03:17.606Z,11.60
2023-10-07T06:05:44.134Z,11.74
2023-10-07T06:08:10.671Z,11.90
2023-10-07T06:10:37.274Z,12.01
2023-10-07T06:13:03.773Z,12.13
2023-10-07T06:15:30.225Z,12.20
2023-10-07T06:17:56.717Z,12.27
2023-10-07T06:20:23.202Z,12.33
2023-10-07T06:22:49.817Z,12.40
2023-10-07T06:25:16.343Z,12.39
2023-10-07T06:27:42.854Z,12.45
2023-10-07T06:30:09.326Z,12.51
2023-10-07T06:32:35.841Z,12.48
2023-10-07T06:35:02.459Z,12.48
2023-10-07T06:37:28.952Z,12.44
2023-10-07T06:39:55.748Z,12.46
2023-10-07T06:42:22.215Z,12.53
2023-10-07T06:44:48.673Z,12.64
2023-10-07T06:47:15.181Z,12.69
2023-10-07T06:49:41.680Z,12.79
2023-10-07T06:52:08.143Z,12.93
2023-10-07T06:54:34.700Z,13.03
2023-10-07T06:57:01.270Z,13.14
2023-10-07T06:59:27.730Z,13.21
2023-10-07T07:01:54.373Z,13.34
2023-10-07T07:04:20.901Z,13.50
2023-10-07T07:06:47.384Z,13.72
2023-10-07T07:09:13.816Z,13.82
2023-10-07T07:11:40.272Z,13.94
2023-10-07T07:14:08.064Z,14.01
2023-10-07T07:16:34.769Z,14.02
2023-10-07T07:19:01.215Z,14.02
2023-10-07T07:21:27.705Z,14.06
2023-10-07T07:23:54.165Z,14.09
2023-10-07T07:26:20.688Z,14.13
2023-10-07T07:28:47.182Z,14.17
2023-10-07T07:31:13.708Z,14.20
2023-10-07T07:33:40.172Z,14.32
2023-10-07T07:36:06.621Z,14.41
2023-10-07T07:38:33.104Z,14.46
2023-10-07T07:40:59.610Z,14.51
2023-10-07T07:43:26.075Z,14.60
2023-10-07T07:45:52.563Z,14.72
2023-10-07T07:48:19.084Z,14.80
2023-10-07T07:50:45.622Z,14.91
2023-10-07T07:53:12.105Z,15.02
2023-10-07T07:55:38.718Z,15.14
2023-10-07T07:58:05.192Z,15.27
2023-10-07T08:00:31.729Z,15.40
2023-10-07T08:02:58.251Z,15.53
2023-10-07T08:05:24.878Z,15.63
2023-10-07T08:07:51.479Z,15.74
2023-10-07T08:10:17.956Z,15.87
2023-10-07T08:12:44.417Z,15.95
2023-10-07T08:15:10.872Z,16.06
2023-10-07T08:17:37.411Z,16.18
2023-10-07T08:20:04.058Z,16.26
2023-10-07T08:22:30.686Z,16.39
2023-10-07T08:24:57.130Z,16.53
2023-10-07T08:27:23.595Z,16.63
2023-10-07T08:29:50.048Z,16.68
2023-10-07T08:32:16.592Z,16.77
2023-10-07T08:34:43.224Z,16.85
2023-10-07T08:37:09.688Z,16.94
2023-10-07T08:39:36.133Z,17.01
2023-10-07T08:42:02.590Z,17.10
2023-10-07T08:44:29.051Z,17.16
2023-10-07T08:46:55.685Z,17.14
2023-10-07T08:49:22.327Z,17.05
2023-10-07T08:51:48.792Z,17.04
2023-10-07T08:54:15.225Z,17.10
2023-10-07T08:56:41.705Z,17.20
2023-10-07T08:59:08.233Z,17.30
2023-10-07T09:01:34.754Z,17.38
2023-10-07T09:04:01.292Z,17.40
2023-10-07T09:06:27.786Z,17.44
2023-10-07T09:08:54.223Z,17.54
2023-10-07T09:11:20.902Z,17.61
2023-10-07T09:13:47.677Z,17.67
2023-10-07T09:16:14.211Z,17.67
2023-10-07T09:18:40.738Z,17.67
2023-10-07T09:21:07.253Z,17.73
2023-10-07T09:23:35.717Z,17.81
2023-10-07T09:26:03.359Z,17.87
2023-10-07T09:28:29.826Z,17.97
2023-10-07T09:30:56.305Z,18.01
2023-10-07T09:33:22.846Z,18.07
2023-10-07T09:35:49.387Z,18.10
2023-10-07T09:38:15.869Z,18.16
2023-10-07T09:40:42.465Z,18.23
2023-10-07T09:43:09.014Z,18.30
2023-10-07T09:45:35.508Z,18.28
2023-10-07T09:48:02.139Z,18.33
2023-10-07T09:50:28.992Z,18.38
2023-10-07T09:52:55.571Z,18.49
2023-10-07T09:55:22.113Z,18.50
2023-10-07T09:57:48.569Z,18.50
2023-10-07T10:00:15.019Z,18.52
2023-10-07T10:02:41.585Z,18.58
2023-10-07T10:05:08.243Z,18.68
2023-10-07T10:07:34.798Z,18.77
2023-10-07T10:10:01.254Z,18.82
2023-10-07T10:12:27.692Z,18.81
2023-10-07T10:14:54.145Z,18.86
2023-10-07T10:17:21.281Z,18.83
2023-10-07T10:19:47.853Z,18.86
2023-10-07T10:22:14.379Z,18.97
2023-10-07T10:24:40.833Z,19.07
2023-10-07T10:27:07.307Z,19.21
2023-10-07T10:29:33.753Z,19.27
2023-10-07T10:32:01.495Z,19.34
2023-10-07T10:34:28.003Z,19.39
2023-10-07T10:36:54.522Z,19.41
2023-10-07T10:41:50.314Z,19.50
2023-10-07T10:44:16.788Z,19.52
2023-10-07T10:46:43.286Z,19.52
2023-10-07T10:49:09.908Z,19.54
2023-10-07T10:51:36.539Z,19.59
2023-10-07T10:54:02.995Z,19.62
2023-10-07T10:56:29.432Z,19.65
2023-10-07T10:58:56.006Z,19.64
2023-10-07T11:01:22.498Z,19.65
2023-10-07T11:03:49.047Z,19.62
2023-10-07T11:06:15.588Z,19.70
2023-10-07T11:08:42.066Z,19.72
2023-10-07T11:11:08.535Z,19.73
2023-10-07T11:13:34.997Z,19.77
2023-10-07T11:16:01.462Z,19.83
2023-10-07T11:18:27.965Z,19.88
2023-10-07T11:20:54.410Z,19.97
2023-10-07T11:23:21.723Z,20.04
2023-10-07T11:25:49.805Z,20.07
2023-10-07T11:28:16.293Z,20.12
2023-10-07T11:30:42.752Z,20.17
2023-10-07T11:33:09.335Z,20.17
2023-10-07T11:35:35.906Z,20.18
2023-10-07T11:38:02.435Z,20.21
2023-10-07T11:40:29.018Z,20.26
2023-10-07T11:42:55.540Z,20.27
2023-10-07T11:45:22.016Z,20.26
2023-10-07T11:47:48.490Z,20.28
2023-10-07T11:50:15.121Z,20.23
2023-10-07T11:52:41.613Z,20.20
2023-10-07T11:55:08.075Z,20.24
2023-10-07T11:57:34.518Z,20.25
2023-10-07T12:00:01.064Z,20.23
2023-10-07T12:02:27.673Z,20.26
2023-10-07T12:04:54.255Z,20.30
2023-10-07T12:07:20.764Z,20.33
2023-10-07T12:09:47.240Z,20.36
2023-10-07T12:12:13.745Z,20.37
2023-10-07T12:14:40.202Z,20.37
2023-10-07T12:17:06.851Z,20.25
2023-10-07T12:19:33.405Z,20.23
2023-10-07T12:21:59.845Z,20.25
2023-10-07T12:24:26.296Z,20.28
2023-10-07T12:26:52.754Z,20.29
2023-10-07T12:29:19.295Z,20.32
2023-10-07T12:31:45.890Z,20.35
2023-10-07T12:34:12.669Z,20.37
2023-10-07T12:36:39.233Z,20.40
2023-10-07T12:39:05.694Z,20.40
2023-10-07T12:41:32.199Z,20.42
2023-10-07T12:43:58.750Z,20.44
2023-10-07T12:46:25.274Z,20.42
2023-10-07T12:48:51.737Z,20.41
2023-10-07T12:51:18.197Z,20.38
2023-10-07T12:53:44.712Z,20.41
2023-10-07T12:56:11.205Z,20.41
2023-10-07T12:58:37.685Z,20.44
2023-10-07T13:01:04.172Z,20.47
2023-10-07T13:03:30.886Z,20.50
2023-10-07T13:05:57.468Z,20.52
2023-10-07T13:08:23.993Z,20.53
2023-10-07T13:10:50.502Z,20.53
2023-10-07T13:13:16.979Z,20.52
2023-10-07T13:15:43.571Z,20.55
2023-10-07T13:18:10.178Z,20.58
2023-10-07T13:20:36.770Z,20.65
2023-10-07T13:23:03.297Z,20.70
2023-10-07T13:25:29.762Z,20.71
2023-10-07T13:27:56.221Z,20.69
2023-10-07T13:30:22.690Z,20.72
2023-10-07T13:32:49.201Z,20.74
2023-10-07T13:35:15.754Z,20.78
2023-10-07T13:37:42.224Z,20.83
2023-10-07T13:40:08.662Z,20.86
2023-10-07T13:42:35.130Z,20.90
2023-10-07T13:45:01.571Z,20.93
2023-10-07T13:47:28.213Z,20.98
2023-10-07T13:49:54.833Z,21.02
2023-10-07T13:52:21.325Z,21.06
2023-10-07T13:54:47.803Z,21.10
2023-10-07T13:57:14.336Z,21.14
2023-10-07T13:59:40.862Z,21.18
2023-10-07T14:02:07.373Z,21.16
2023-10-07T14:04:33.888Z,21.17
2023-10-07T14:07:00.385Z,21.14
2023-10-07T14:09:26.817Z,21.14
2023-10-07T14:11:53.317Z,21.12
2023-10-07T14:14:19.866Z,21.10
2023-10-07T14:16:46.460Z,21.11
2023-10-07T14:19:12.942Z,21.13
2023-10-07T14:21:39.375Z,21.14
2023-10-07T14:24:05.816Z,21.13
2023-10-07T14:26:32.318Z,21.13
2023-10-07T14:28:58.883Z,21.13
2023-10-07T14:31:25.431Z,21.13
2023-10-07T14:33:51.950Z,21.13
2023-10-07T14:36:18.402Z,21.10
2023-10-07T14:38:44.901Z,21.10
2023-10-07T14:41:11.443Z,21.12
2023-10-07T14:43:37.908Z,21.14
2023-10-07T14:46:04.382Z,21.13
2023-10-07T14:48:30.916Z,21.12
2023-10-07T14:50:57.462Z,21.13
2023-10-07T14:53:24.097Z,21.12
2023-10-07T14:55:50.582Z,21.12
2023-10-07T14:58:17.136Z,21.12
2023-10-07T15:00:43.610Z,21.10
2023-10-07T15:03:10.187Z,21.09
2023-10-07T15:05:36.798Z,21.08
2023-10-07T15:08:03.294Z,21.08
2023-10-07T15:10:29.757Z,21.07
2023-10-07T15:12:56.209Z,21.06
2023-10-07T15:15:22.771Z,21.07
2023-10-07T15:17:49.275Z,21.06
2023-10-07T15:20:15.851Z,21.05
2023-10-07T15:22:42.491Z,21.04
2023-10-07T15:25:08.961Z,21.05
2023-10-07T15:27:35.410Z,21.06
2023-10-07T15:30:01.883Z,21.05
2023-10-07T15:32:28.398Z,21.01
2023-10-07T15:34:54.932Z,20.97
2023-10-07T15:37:21.473Z,20.92
2023-10-07T15:39:47.921Z,20.90
2023-10-07T15:42:14.365Z,20.88
2023-10-07T15:44:40.886Z,20.85
2023-10-07T15:47:07.358Z,20.80
2023-10-07T15:49:33.875Z,20.75
2023-10-07T15:52:00.383Z,20.71
2023-10-07T15:54:26.853Z,20.68
2023-10-07T15:56:53.331Z,20.65
2023-10-07T15:59:19.867Z,20.61
2023-10-07T16:01:46.478Z,20.57
2023-10-07T16:04:13.252Z,20.53
2023-10-07T16:06:39.983Z,20.50
2023-10-07T16:09:06.432Z,20.44
2023-10-07T16:11:32.989Z,20.38
2023-10-07T16:13:59.495Z,20.32
2023-10-07T16:16:26.189Z,20.25
2023-10-07T16:18:52.672Z,20.20
2023-10-07T16:21:19.149Z,20.08
2023-10-07T16:23:45.734Z,19.96
2023-10-07T16:26:12.237Z,19.93
2023-10-07T16:28:38.696Z,19.92
2023-10-07T16:31:05.163Z,19.89
2023-10-07T16:33:31.646Z,19.84
2023-10-07T16:35:58.106Z,19.76
2023-10-07T16:38:24.606Z,19.69
2023-10-07T16:40:51.096Z,19.64
2023-10-07T16:43:17.550Z,19.55
2023-10-07T16:45:44.010Z,19.48
2023-10-07T16:48:10.472Z,19.41
2023-10-07T16:50:36.970Z,19.34
2023-10-07T16:53:03.510Z,19.26
2023-10-07T16:55:30.028Z,19.19
2023-10-07T16:57:56.570Z,19.14
2023-10-07T17:00:23.038Z,19.07
2023-10-07T17:02:49.621Z,19.03
2023-10-07T17:05:16.160Z,18.97
2023-10-07T17:07:42.641Z,18.92
2023-10-07T17:10:09.108Z,18.89
2023-10-07T17:12:35.593Z,18.90
2023-10-07T17:15:02.047Z,18.91
2023-10-07T17:17:28.546Z,18.93
2023-10-07T17:19:55.089Z,18.95
2023-10-07T17:22:21.564Z,18.97
2023-10-07T17:24:48.010Z,18.99
2023-10-07T17:27:14.466Z,19.02
2023-10-07T17:29:40.927Z,19.00
2023-10-07T17:32:07.456Z,18.96
2023-10-07T17:34:33.982Z,18.91
2023-10-07T17:37:00.524Z,18.87
2023-10-07T17:39:26.964Z,18.87
2023-10-07T17:41:53.527Z,18.85
2023-10-07T17:44:20.147Z,18.86
2023-10-07T17:46:46.655Z,18.87
2023-10-07T17:49:13.252Z,18.88
2023-10-07T17:51:39.926Z,18.90
2023-10-07T17:54:06.371Z,18.91
2023-10-07T17:56:32.871Z,18.90
2023-10-07T17:58:59.387Z,18.87
2023-10-07T18:01:25.962Z,18.85
2023-10-07T18:03:52.552Z,18.81
2023-10-07T18:06:19.063Z,18.80
2023-10-07T18:08:45.528Z,18.79
2023-10-07T18:11:12.060Z,18.71
2023-10-07T18:13:38.510Z,18.68
2023-10-07T18:16:05.088Z,18.67
2023-10-07T18:18:31.924Z,18.67
2023-10-07T18:20:58.389Z,18.64
2023-10-07T18:23:24.888Z,18.63
2023-10-07T18:25:51.351Z,18.65
2023-10-07T18:28:17.809Z,18.69
2023-10-07T18:30:44.274Z,18.72
2023-10-07T18:33:10.887Z,18.68
2023-10-07T18:35:37.433Z,18.63
2023-10-07T18:38:03.932Z,18.60
2023-10-07T18:40:30.424Z,18.56
2023-10-07T18:42:56.870Z,18.53
2023-10-07T18:45:23.346Z,18.47
2023-10-07T18:47:49.865Z,18.42
2023-10-07T18:50:16.414Z,18.39
2023-10-07T18:52:42.907Z,18.36
2023-10-07T18:55:09.368Z,18.33
2023-10-07T18:57:35.824Z,18.31
2023-10-07T19:00:04.329Z,18.30
2023-10-07T19:02:30.823Z,18.32
2023-10-07T19:04:57.312Z,18.31
2023-10-07T19:07:23.749Z,18.31
2023-10-07T19:09:50.217Z,18.30
2023-10-07T19:12:16.689Z,18.29
2023-10-07T19:14:43.196Z,18.30
2023-10-07T19:17:09.711Z,18.30
2023-10-07T19:19:36.169Z,18.28
2023-10-07T19:22:02.631Z,18.27
2023-10-07T19:24:29.083Z,18.23
2023-10-07T19:26:55.573Z,18.23
2023-10-07T19:29:22.222Z,18.22
2023-10-07T19:31:48.730Z,18.19
2023-10-07T19:34:15.190Z,18.14
2023-10-07T19:36:41.909Z,18.06
2023-10-07T19:39:09.102Z,17.98
2023-10-07T19:41:35.617Z,17.91
2023-10-07T19:44:02.133Z,17.91
2023-10-07T19:46:28.751Z,17.93
2023-10-07T19:48:55.230Z,17.96
2023-10-07T19:51:21.683Z,17.98
2023-10-07T19:53:48.142Z,17.98
2023-10-07T19:56:14.646Z,18.01
2023-10-07T19:58:41.199Z,18.00
2023-10-07T20:01:07.681Z,17.97
2023-10-07T20:03:34.218Z,17.91
2023-10-07T20:06:00.773Z,17.90
2023-10-07T20:08:27.257Z,17.94
2023-10-07T20:10:53.739Z,17.93
2023-10-07T20:13:20.188Z,17.95
2023-10-07T20:15:46.630Z,17.91
2023-10-07T20:18:13.173Z,17.87
2023-10-07T20:20:39.727Z,17.84
2023-10-07T20:23:06.241Z,17.84
2023-10-07T20:25:32.736Z,17.84
2023-10-07T20:27:59.188Z,17.83
2023-10-07T20:30:25.652Z,17.84
2023-10-07T20:32:52.158Z,17.83
2023-10-07T20:35:18.705Z,17.86
2023-10-07T20:37:45.227Z,17.86
2023-10-07T20:40:11.740Z,17.84
2023-10-07T20:42:38.167Z,17.83
2023-10-07T20:45:04.663Z,17.81
2023-10-07T20:47:31.208Z,17.83
2023-10-07T20:49:57.798Z,17.82
2023-10-07T20:52:24.309Z,17.81
2023-10-07T20:54:50.768Z,17.78
2023-10-07T20:57:17.211Z,17.76
2023-10-07T20:59:43.766Z,17.74
2023-10-07T21:02:10.451Z,17.73
2023-10-07T21:04:37.061Z,17.71
2023-10-07T21:07:03.556Z,17.68
2023-10-07T21:09:30.074Z,17.64
2023-10-07T21:11:56.548Z,17.57
2023-10-07T21:14:23.025Z,17.56
2023-10-07T21:16:49.488Z,17.55
2023-10-07T21:19:15.965Z,17.54
2023-10-07T21:21:42.436Z,17.51
2023-10-07T21:24:08.913Z,17.52
2023-10-07T21:26:35.422Z,17.49
2023-10-07T21:29:01.899Z,17.46
2023-10-07T21:31:28.386Z,17.47
2023-10-07T21:33:54.904Z,17.49
2023-10-07T21:36:21.372Z,17.50
2023-10-07T21:38:47.895Z,17.51
2023-10-07T21:41:14.609Z,17.54
2023-10-07T21:43:41.133Z,17.54
2023-10-07T21:46:07.631Z,17.53
2023-10-07T21:48:34.125Z,17.51
2023-10-07T21:51:00.609Z,17.50
2023-10-07T21:53:27.106Z,17.51
2023-10-07T21:55:53.599Z,17.53
2023-10-07T21:58:20.081Z,17.52
2023-10-07T22:00:46.525Z,17.51
2023-10-07T22:03:13.065Z,17.51
2023-10-07T22:05:39.747Z,17.52
2023-10-07T22:08:06.252Z,17.51
2023-10-07T22:10:32.765Z,17.52
2023-10-07T22:12:59.210Z,17.53
2023-10-07T22:15:25.829Z,17.54
2023-10-07T22:17:52.449Z,17.53
2023-10-07T22:20:19.076Z,17.49
2023-10-07T22:22:45.527Z,17.45
2023-10-07T22:25:11.999Z,17.31
2023-10-07T22:27:38.541Z,17.21
2023-10-07T22:30:04.997Z,17.11
2023-10-07T22:32:31.502Z,17.03
2023-10-07T22:34:57.997Z,16.94
2023-10-07T22:37:24.458Z,16.86
2023-10-07T22:39:50.902Z,16.81
2023-10-07T22:42:17.359Z,16.79
2023-10-07T22:44:43.839Z,16.79
2023-10-07T22:47:10.363Z,16.70
2023-10-07T22:49:36.812Z,16.63
2023-10-07T22:52:03.289Z,16.61
2023-10-07T22:54:29.745Z,16.58
2023-10-07T22:56:56.201Z,16.56
2023-10-07T22:59:22.673Z,16.54
2023-10-07T23:01:49.152Z,16.52
2023-10-07T23:04:16.596Z,16.50
2023-10-07T23:06:43.490Z,16.46
2023-10-07T23:09:10.158Z,16.45
2023-10-07T23:11:36.878Z,16.39
2023-10-07T23:14:03.377Z,16.32
2023-10-07T23:16:29.823Z,16.24
2023-10-07T23:18:56.323Z,16.17
2023-10-07T23:21:22.757Z,16.14
2023-10-07T23:23:49.211Z,16.07
2023-10-07T23:26:15.694Z,16.03
2023-10-07T23:28:42.225Z,16.00
2023-10-07T23:31:08.715Z,15.98
2023-10-07T23:33:35.262Z,15.97
2023-10-07T23:36:01.758Z,15.97
2023-10-07T23:38:28.280Z,15.97
2023-10-07T23:40:54.763Z,15.99
2023-10-07T23:43:21.238Z,15.97
2023-10-07T23:45:47.717Z,15.95
2023-10-07T23:48:14.173Z,15.92
2023-10-07T23:50:40.813Z,15.82
2023-10-07T23:53:07.563Z,15.74
2023-10-07T23:55:34.078Z,15.75
2023-10-07T23:58:00.549Z,15.77
